Погода Усфанна неделю

Мекка, Саудовская Аравия

04 - 10 марта
  • 04марта
    Сегодня
    +21°
    +31°
    Ясно и безоблачно
    ВремяПогодаТемператураВлажностьДавлениеВетер, м/сВероятность осадков
    00:00Ясно и безоблачно+24°C79 %756 мм2.6 м/с2 %
    03:00Ясно и безоблачно+23°C83 %755 мм2.4 м/с2 %
    06:00Ясно и безоблачно+22°C84 %756 мм1.9 м/с2 %
    09:00Ясно и безоблачно+25°C72 %757 мм3.3 м/с2 %
    12:00Ясно и безоблачно+29°C36 %756 мм3.8 м/с2 %
    15:00Ясно и безоблачно+29°C43 %755 мм5.8 м/с1 %
    18:00Ясно и безоблачно+27°C54 %755 мм5.4 м/с1 %
    21:00Ясно и безоблачно+24°C72 %757 мм4.6 м/с2 %
  • 05марта
    Вторник
    +23°
    +30°
    Ясно и безоблачно
    ВремяПогодаТемператураВлажностьДавлениеВетер, м/сВероятность осадков
    00:00Ясно и безоблачно+23°C77 %757 мм2.6 м/с2 %
    03:00Ясно и безоблачно+22°C77 %755 мм2.2 м/с2 %
    06:00Ясно и безоблачно+22°C78 %756 мм1.4 м/с2 %
    09:00Ясно и безоблачно+25°C56 %757 мм2.2 м/с2 %
    12:00Ясно и безоблачно+30°C41 %756 мм2.6 м/с2 %
    15:00Ясно и безоблачно+29°C51 %754 мм5.2 м/с3 %
    18:00Ясно и безоблачно+27°C61 %755 мм4.4 м/с3 %
    21:00Ясно и безоблачно+26°C67 %756 мм3.6 м/с3 %
  • 06марта
    Среда
    +20°
    +30°
    Ясно и безоблачно
    ВремяПогодаТемператураВлажностьДавлениеВетер, м/сВероятность осадков
    00:00Практически безоблачно+26°C68 %756 мм1.6 м/с4 %
    03:00Практически безоблачно+25°C76 %755 мм1.9 м/с4 %
    06:00Ясно и безоблачно+24°C81 %755 мм1.4 м/с2 %
    09:00Небольшая облачность+26°C65 %756 мм2.7 м/с2 %
    12:00Практически безоблачно+29°C56 %756 мм3.7 м/с2 %
    15:00Ясно и безоблачно+29°C55 %755 мм6.3 м/с4 %
    18:00Ясно и безоблачно+27°C59 %755 мм5.6 м/с2 %
    21:00Ясно и безоблачно+25°C71 %756 мм4.5 м/с2 %
  • 07марта
    Четверг
    +20°
    +30°
    Ясно и безоблачно
    ВремяПогодаТемператураВлажностьДавлениеВетер, м/сВероятность осадков
    00:00Ясно и безоблачно+24°C85 %756 мм2.3 м/с2 %
    03:00Ясно и безоблачно+22°C94 %755 мм2.0 м/с2 %
    06:00Практически безоблачно+21°C93 %756 мм1.5 м/с2 %
    09:00Ясно и безоблачно+24°C76 %757 мм3.3 м/с2 %
    12:00Ясно и безоблачно+29°C42 %757 мм4.6 м/с2 %
    15:00Ясно и безоблачно+30°C35 %756 мм7.5 м/с2 %
    18:00Ясно и безоблачно+27°C54 %756 мм6.6 м/с2 %
    21:00Ясно и безоблачно+24°C70 %757 мм5.0 м/с2 %
  • 08марта
    Пятница
    +20°
    +29°
    Ясно и безоблачно
    ВремяПогодаТемператураВлажностьДавлениеВетер, м/сВероятность осадков
    00:00Ясно и безоблачно+23°C81 %757 мм2.8 м/с2 %
    03:00Практически безоблачно+21°C87 %756 мм2.5 м/с2 %
    06:00Ясно и безоблачно+21°C88 %757 мм1.8 м/с2 %
    09:00Ясно и безоблачно+24°C69 %758 мм3.3 м/с2 %
    12:00Ясно и безоблачно+28°C46 %757 мм4.4 м/с2 %
    15:00Ясно и безоблачно+28°C45 %756 мм6.3 м/с2 %
    18:00Ясно и безоблачно+26°C59 %756 мм5.6 м/с2 %
    21:00Ясно и безоблачно+24°C71 %758 мм4.7 м/с2 %
Мы используем cookies
Соглашаюсь